sensor_id;sensor_type;location;lat;lon;timestamp;P1;durP1;ratioP1;P2;durP2;ratioP2
8183;SDS011;4133;48.752;9.088;2023-04-16T00:00:04;16.50;;;11.07;;
8183;SDS011;4133;48.752;9.088;2023-04-16T00:02:30;17.17;;;11.43;;
8183;SDS011;4133;48.752;9.088;2023-04-16T00:04:56;17.53;;;11.93;;
8183;SDS011;4133;48.752;9.088;2023-04-16T00:07:23;15.77;;;11.80;;
8183;SDS011;4133;48.752;9.088;2023-04-16T00:09:49;18.60;;;11.47;;
8183;SDS011;4133;48.752;9.088;2023-04-16T00:12:15;15.70;;;11.40;;
8183;SDS011;4133;48.752;9.088;2023-04-16T00:14:41;18.00;;;12.57;;
8183;SDS011;4133;48.752;9.088;2023-04-16T00:17:07;18.57;;;12.13;;
8183;SDS011;4133;48.752;9.088;2023-04-16T00:19:33;18.23;;;12.80;;
8183;SDS011;4133;48.752;9.088;2023-04-16T00:21:59;17.20;;;12.23;;
8183;SDS011;4133;48.752;9.088;2023-04-16T00:24:25;19.90;;;12.77;;
8183;SDS011;4133;48.752;9.088;2023-04-16T00:26:52;19.17;;;13.23;;
8183;SDS011;4133;48.752;9.088;2023-04-16T00:31:52;18.17;;;12.87;;
8183;SDS011;4133;48.752;9.088;2023-04-16T00:34:18;19.93;;;12.73;;
8183;SDS011;4133;48.752;9.088;2023-04-16T00:36:44;15.67;;;11.80;;
8183;SDS011;4133;48.752;9.088;2023-04-16T00:39:10;17.83;;;12.23;;
8183;SDS011;4133;48.752;9.088;2023-04-16T00:41:37;15.97;;;11.97;;
8183;SDS011;4133;48.752;9.088;2023-04-16T00:44:03;19.13;;;12.60;;
8183;SDS011;4133;48.752;9.088;2023-04-16T00:46:29;17.63;;;12.67;;
8183;SDS011;4133;48.752;9.088;2023-04-16T00:48:55;15.70;;;11.60;;
8183;SDS011;4133;48.752;9.088;2023-04-16T00:51:21;18.87;;;11.30;;
8183;SDS011;4133;48.752;9.088;2023-04-16T00:53:47;16.27;;;11.33;;
8183;SDS011;4133;48.752;9.088;2023-04-16T00:56:13;14.87;;;10.90;;
8183;SDS011;4133;48.752;9.088;2023-04-16T00:58:39;17.03;;;12.20;;
8183;SDS011;4133;48.752;9.088;2023-04-16T01:01:06;14.90;;;10.83;;
8183;SDS011;4133;48.752;9.088;2023-04-16T01:03:38;15.93;;;11.10;;
8183;SDS011;4133;48.752;9.088;2023-04-16T01:06:05;15.40;;;10.60;;
8183;SDS011;4133;48.752;9.088;2023-04-16T01:08:32;15.50;;;11.17;;
8183;SDS011;4133;48.752;9.088;2023-04-16T01:10:58;17.07;;;11.63;;
8183;SDS011;4133;48.752;9.088;2023-04-16T01:13:24;18.33;;;11.77;;
8183;SDS011;4133;48.752;9.088;2023-04-16T01:15:50;16.97;;;11.10;;
8183;SDS011;4133;48.752;9.088;2023-04-16T01:18:17;16.73;;;10.90;;
8183;SDS011;4133;48.752;9.088;2023-04-16T01:20:43;16.97;;;11.57;;
8183;SDS011;4133;48.752;9.088;2023-04-16T01:23:09;16.77;;;11.17;;
8183;SDS011;4133;48.752;9.088;2023-04-16T01:25:36;17.63;;;11.40;;
8183;SDS011;4133;48.752;9.088;2023-04-16T01:30:41;15.83;;;11.33;;
8183;SDS011;4133;48.752;9.088;2023-04-16T01:33:13;15.77;;;9.70;;
8183;SDS011;4133;48.752;9.088;2023-04-16T01:35:39;14.13;;;9.80;;
8183;SDS011;4133;48.752;9.088;2023-04-16T01:38:06;15.67;;;10.47;;
8183;SDS011;4133;48.752;9.088;2023-04-16T01:40:33;14.67;;;10.80;;
8183;SDS011;4133;48.752;9.088;2023-04-16T01:42:59;14.43;;;9.97;;
8183;SDS011;4133;48.752;9.088;2023-04-16T01:45:25;14.63;;;10.83;;
8183;SDS011;4133;48.752;9.088;2023-04-16T01:47:51;13.87;;;10.30;;
8183;SDS011;4133;48.752;9.088;2023-04-16T01:50:18;13.83;;;10.00;;
8183;SDS011;4133;48.752;9.088;2023-04-16T01:52:44;14.57;;;9.73;;
8183;SDS011;4133;48.752;9.088;2023-04-16T01:55:10;13.70;;;8.97;;
8183;SDS011;4133;48.752;9.088;2023-04-16T01:57:37;11.47;;;8.73;;
8183;SDS011;4133;48.752;9.088;2023-04-16T02:00:03;12.20;;;8.50;;
8183;SDS011;4133;48.752;9.088;2023-04-16T02:02:29;15.13;;;9.20;;
8183;SDS011;4133;48.752;9.088;2023-04-16T02:04:58;11.23;;;8.13;;
8183;SDS011;4133;48.752;9.088;2023-04-16T02:07:24;12.33;;;8.30;;
8183;SDS011;4133;48.752;9.088;2023-04-16T02:09:51;12.87;;;8.93;;
8183;SDS011;4133;48.752;9.088;2023-04-16T02:12:17;12.83;;;8.27;;
8183;SDS011;4133;48.752;9.088;2023-04-16T02:14:44;13.50;;;8.70;;
8183;SDS011;4133;48.752;9.088;2023-04-16T02:17:10;12.87;;;9.03;;
8183;SDS011;4133;48.752;9.088;2023-04-16T02:19:36;11.90;;;8.60;;
8183;SDS011;4133;48.752;9.088;2023-04-16T02:22:02;13.90;;;9.77;;
8183;SDS011;4133;48.752;9.088;2023-04-16T02:24:28;11.97;;;8.50;;
8183;SDS011;4133;48.752;9.088;2023-04-16T02:26:54;11.00;;;7.90;;
8183;SDS011;4133;48.752;9.088;2023-04-16T02:32:24;12.47;;;8.40;;
8183;SDS011;4133;48.752;9.088;2023-04-16T02:34:51;13.77;;;8.40;;
8183;SDS011;4133;48.752;9.088;2023-04-16T02:37:17;11.63;;;8.30;;
8183;SDS011;4133;48.752;9.088;2023-04-16T02:39:43;13.53;;;8.47;;
8183;SDS011;4133;48.752;9.088;2023-04-16T02:42:11;13.03;;;8.57;;
8183;SDS011;4133;48.752;9.088;2023-04-16T02:44:37;10.27;;;7.37;;
8183;SDS011;4133;48.752;9.088;2023-04-16T02:47:03;12.50;;;7.63;;
8183;SDS011;4133;48.752;9.088;2023-04-16T02:49:29;11.10;;;7.43;;
8183;SDS011;4133;48.752;9.088;2023-04-16T02:51:55;11.37;;;7.80;;
8183;SDS011;4133;48.752;9.088;2023-04-16T02:54:21;11.17;;;7.97;;
8183;SDS011;4133;48.752;9.088;2023-04-16T02:56:47;13.77;;;8.77;;
8183;SDS011;4133;48.752;9.088;2023-04-16T02:59:13;12.30;;;8.80;;
8183;SDS011;4133;48.752;9.088;2023-04-16T03:01:39;11.17;;;7.90;;
8183;SDS011;4133;48.752;9.088;2023-04-16T03:04:05;13.17;;;8.33;;
8183;SDS011;4133;48.752;9.088;2023-04-16T03:06:31;12.60;;;8.43;;
8183;SDS011;4133;48.752;9.088;2023-04-16T03:08:57;12.20;;;8.37;;
8183;SDS011;4133;48.752;9.088;2023-04-16T03:11:23;12.27;;;7.93;;
8183;SDS011;4133;48.752;9.088;2023-04-16T03:13:49;14.57;;;8.77;;
8183;SDS011;4133;48.752;9.088;2023-04-16T03:16:15;13.33;;;9.37;;
8183;SDS011;4133;48.752;9.088;2023-04-16T03:18:41;14.97;;;9.13;;
8183;SDS011;4133;48.752;9.088;2023-04-16T03:21:07;16.80;;;9.53;;
8183;SDS011;4133;48.752;9.088;2023-04-16T03:23:34;18.07;;;10.23;;
8183;SDS011;4133;48.752;9.088;2023-04-16T03:26:00;17.20;;;10.17;;
8183;SDS011;4133;48.752;9.088;2023-04-16T03:31:22;17.17;;;10.43;;
8183;SDS011;4133;48.752;9.088;2023-04-16T03:33:48;16.40;;;9.80;;
8183;SDS011;4133;48.752;9.088;2023-04-16T03:36:14;14.60;;;9.27;;
8183;SDS011;4133;48.752;9.088;2023-04-16T03:38:40;15.07;;;10.00;;
8183;SDS011;4133;48.752;9.088;2023-04-16T03:41:06;18.00;;;10.27;;
8183;SDS011;4133;48.752;9.088;2023-04-16T03:43:36;17.43;;;10.63;;
8183;SDS011;4133;48.752;9.088;2023-04-16T03:46:02;13.53;;;8.83;;
8183;SDS011;4133;48.752;9.088;2023-04-16T03:48:28;16.87;;;10.17;;
8183;SDS011;4133;48.752;9.088;2023-04-16T03:50:54;16.43;;;9.27;;
8183;SDS011;4133;48.752;9.088;2023-04-16T03:53:22;15.47;;;8.63;;
8183;SDS011;4133;48.752;9.088;2023-04-16T03:55:51;14.20;;;8.90;;
8183;SDS011;4133;48.752;9.088;2023-04-16T03:58:17;14.93;;;8.90;;
8183;SDS011;4133;48.752;9.088;2023-04-16T04:00:43;15.30;;;9.33;;
8183;SDS011;4133;48.752;9.088;2023-04-16T04:03:10;16.23;;;9.37;;
8183;SDS011;4133;48.752;9.088;2023-04-16T04:05:36;15.67;;;9.50;;
8183;SDS011;4133;48.752;9.088;2023-04-16T04:08:02;19.13;;;10.37;;
8183;SDS011;4133;48.752;9.088;2023-04-16T04:10:30;16.23;;;10.20;;
8183;SDS011;4133;48.752;9.088;2023-04-16T04:12:56;17.93;;;10.33;;
8183;SDS011;4133;48.752;9.088;2023-04-16T04:15:22;18.63;;;9.93;;
8183;SDS011;4133;48.752;9.088;2023-04-16T04:17:48;17.67;;;10.20;;
8183;SDS011;4133;48.752;9.088;2023-04-16T04:20:14;17.93;;;10.00;;
8183;SDS011;4133;48.752;9.088;2023-04-16T04:22:40;15.60;;;9.33;;
8183;SDS011;4133;48.752;9.088;2023-04-16T04:25:10;19.47;;;10.57;;
8183;SDS011;4133;48.752;9.088;2023-04-16T04:27:47;16.13;;;9.40;;
8183;SDS011;4133;48.752;9.088;2023-04-16T04:30:13;16.30;;;9.13;;
8183;SDS011;4133;48.752;9.088;2023-04-16T04:32:39;15.07;;;8.77;;
8183;SDS011;4133;48.752;9.088;2023-04-16T04:35:05;14.07;;;8.57;;
8183;SDS011;4133;48.752;9.088;2023-04-16T04:37:31;14.97;;;8.83;;
8183;SDS011;4133;48.752;9.088;2023-04-16T04:39:57;17.43;;;9.33;;
8183;SDS011;4133;48.752;9.088;2023-04-16T04:42:23;14.83;;;8.87;;
8183;SDS011;4133;48.752;9.088;2023-04-16T04:44:50;13.07;;;8.70;;
8183;SDS011;4133;48.752;9.088;2023-04-16T04:47:16;15.67;;;9.27;;
8183;SDS011;4133;48.752;9.088;2023-04-16T04:49:42;15.63;;;9.30;;
8183;SDS011;4133;48.752;9.088;2023-04-16T04:52:08;15.07;;;9.00;;
8183;SDS011;4133;48.752;9.088;2023-04-16T04:54:35;17.53;;;9.97;;
8183;SDS011;4133;48.752;9.088;2023-04-16T04:57:05;16.13;;;9.53;;
8183;SDS011;4133;48.752;9.088;2023-04-16T04:59:31;17.60;;;9.60;;
8183;SDS011;4133;48.752;9.088;2023-04-16T05:01:58;16.53;;;9.30;;
8183;SDS011;4133;48.752;9.088;2023-04-16T05:04:26;16.80;;;9.60;;
8183;SDS011;4133;48.752;9.088;2023-04-16T05:06:52;19.87;;;10.13;;
8183;SDS011;4133;48.752;9.088;2023-04-16T05:09:18;18.37;;;9.90;;
8183;SDS011;4133;48.752;9.088;2023-04-16T05:11:44;17.57;;;10.20;;
8183;SDS011;4133;48.752;9.088;2023-04-16T05:14:10;20.73;;;10.70;;
8183;SDS011;4133;48.752;9.088;2023-04-16T05:16:36;16.67;;;9.23;;
8183;SDS011;4133;48.752;9.088;2023-04-16T05:19:02;16.50;;;9.10;;
8183;SDS011;4133;48.752;9.088;2023-04-16T05:21:28;17.63;;;10.27;;
8183;SDS011;4133;48.752;9.088;2023-04-16T05:23:55;15.73;;;9.27;;
8183;SDS011;4133;48.752;9.088;2023-04-16T05:26:21;16.07;;;9.70;;
8183;SDS011;4133;48.752;9.088;2023-04-16T05:28:47;17.70;;;10.23;;
8183;SDS011;4133;48.752;9.088;2023-04-16T05:31:13;19.30;;;10.80;;
8183;SDS011;4133;48.752;9.088;2023-04-16T05:33:39;18.97;;;11.57;;
8183;SDS011;4133;48.752;9.088;2023-04-16T05:36:05;22.40;;;12.70;;
8183;SDS011;4133;48.752;9.088;2023-04-16T05:38:31;23.97;;;13.43;;
8183;SDS011;4133;48.752;9.088;2023-04-16T05:40:57;30.30;;;14.40;;
8183;SDS011;4133;48.752;9.088;2023-04-16T05:43:23;26.13;;;14.40;;
8183;SDS011;4133;48.752;9.088;2023-04-16T05:45:49;30.30;;;15.90;;
8183;SDS011;4133;48.752;9.088;2023-04-16T05:48:15;31.30;;;16.77;;
8183;SDS011;4133;48.752;9.088;2023-04-16T05:50:41;36.33;;;18.20;;
8183;SDS011;4133;48.752;9.088;2023-04-16T05:53:07;32.33;;;17.37;;
8183;SDS011;4133;48.752;9.088;2023-04-16T05:55:34;29.33;;;16.50;;
8183;SDS011;4133;48.752;9.088;2023-04-16T05:58:03;36.63;;;18.53;;
8183;SDS011;4133;48.752;9.088;2023-04-16T06:00:29;36.77;;;18.07;;
8183;SDS011;4133;48.752;9.088;2023-04-16T06:02:55;38.47;;;18.67;;
8183;SDS011;4133;48.752;9.088;2023-04-16T06:05:21;35.70;;;19.17;;
8183;SDS011;4133;48.752;9.088;2023-04-16T06:07:47;35.13;;;19.37;;
8183;SDS011;4133;48.752;9.088;2023-04-16T06:10:13;39.13;;;19.77;;
8183;SDS011;4133;48.752;9.088;2023-04-16T06:12:39;37.70;;;19.27;;
8183;SDS011;4133;48.752;9.088;2023-04-16T06:15:06;41.47;;;19.90;;
8183;SDS011;4133;48.752;9.088;2023-04-16T06:17:32;43.63;;;19.70;;
8183;SDS011;4133;48.752;9.088;2023-04-16T06:19:58;45.63;;;19.87;;
8183;SDS011;4133;48.752;9.088;2023-04-16T06:22:24;43.07;;;20.67;;
8183;SDS011;4133;48.752;9.088;2023-04-16T06:24:50;39.70;;;19.83;;
8183;SDS011;4133;48.752;9.088;2023-04-16T06:27:16;44.63;;;21.13;;
8183;SDS011;4133;48.752;9.088;2023-04-16T06:29:50;50.27;;;22.87;;
8183;SDS011;4133;48.752;9.088;2023-04-16T06:32:16;47.17;;;22.43;;
8183;SDS011;4133;48.752;9.088;2023-04-16T06:34:42;44.27;;;22.60;;
8183;SDS011;4133;48.752;9.088;2023-04-16T06:37:08;45.73;;;22.37;;
8183;SDS011;4133;48.752;9.088;2023-04-16T06:39:34;47.67;;;22.20;;
8183;SDS011;4133;48.752;9.088;2023-04-16T06:42:00;47.13;;;23.37;;
8183;SDS011;4133;48.752;9.088;2023-04-16T06:44:26;44.63;;;22.37;;
8183;SDS011;4133;48.752;9.088;2023-04-16T06:46:52;48.20;;;22.97;;
8183;SDS011;4133;48.752;9.088;2023-04-16T06:49:18;47.37;;;22.23;;
8183;SDS011;4133;48.752;9.088;2023-04-16T06:51:45;50.83;;;23.17;;
8183;SDS011;4133;48.752;9.088;2023-04-16T06:54:10;49.13;;;22.90;;
8183;SDS011;4133;48.752;9.088;2023-04-16T06:56:36;47.60;;;23.33;;
8183;SDS011;4133;48.752;9.088;2023-04-16T06:59:03;48.17;;;22.63;;
8183;SDS011;4133;48.752;9.088;2023-04-16T07:01:29;47.17;;;22.53;;
8183;SDS011;4133;48.752;9.088;2023-04-16T07:03:55;47.93;;;23.50;;
8183;SDS011;4133;48.752;9.088;2023-04-16T07:06:21;43.57;;;21.37;;
8183;SDS011;4133;48.752;9.088;2023-04-16T07:08:47;43.70;;;21.77;;
8183;SDS011;4133;48.752;9.088;2023-04-16T07:11:13;41.33;;;21.53;;
8183;SDS011;4133;48.752;9.088;2023-04-16T07:13:40;46.53;;;21.50;;
8183;SDS011;4133;48.752;9.088;2023-04-16T07:16:06;54.65;;;30.38;;
8183;SDS011;4133;48.752;9.088;2023-04-16T07:18:32;41.60;;;23.13;;
8183;SDS011;4133;48.752;9.088;2023-04-16T07:20:58;43.90;;;22.07;;
8183;SDS011;4133;48.752;9.088;2023-04-16T07:23:24;38.70;;;20.57;;
8183;SDS011;4133;48.752;9.088;2023-04-16T07:25:50;38.30;;;19.83;;
8183;SDS011;4133;48.752;9.088;2023-04-16T07:31:20;48.30;;;29.02;;
8183;SDS011;4133;48.752;9.088;2023-04-16T07:33:46;40.63;;;21.80;;
8183;SDS011;4133;48.752;9.088;2023-04-16T07:36:12;37.97;;;20.03;;
8183;SDS011;4133;48.752;9.088;2023-04-16T07:38:38;34.20;;;20.23;;
8183;SDS011;4133;48.752;9.088;2023-04-16T07:41:04;32.97;;;19.47;;
8183;SDS011;4133;48.752;9.088;2023-04-16T07:43:30;33.93;;;18.73;;
8183;SDS011;4133;48.752;9.088;2023-04-16T07:45:56;35.40;;;18.87;;
8183;SDS011;4133;48.752;9.088;2023-04-16T07:48:22;31.83;;;19.57;;
8183;SDS011;4133;48.752;9.088;2023-04-16T07:50:48;33.47;;;17.73;;
8183;SDS011;4133;48.752;9.088;2023-04-16T07:53:14;29.70;;;17.67;;
8183;SDS011;4133;48.752;9.088;2023-04-16T07:55:40;33.20;;;18.70;;
8183;SDS011;4133;48.752;9.088;2023-04-16T07:58:06;31.67;;;18.50;;
8183;SDS011;4133;48.752;9.088;2023-04-16T08:00:33;30.43;;;18.83;;
8183;SDS011;4133;48.752;9.088;2023-04-16T08:02:59;27.97;;;17.20;;
8183;SDS011;4133;48.752;9.088;2023-04-16T08:05:25;31.23;;;17.67;;
8183;SDS011;4133;48.752;9.088;2023-04-16T08:07:51;31.70;;;18.13;;
8183;SDS011;4133;48.752;9.088;2023-04-16T08:10:17;29.90;;;17.50;;
8183;SDS011;4133;48.752;9.088;2023-04-16T08:12:43;27.83;;;17.13;;
8183;SDS011;4133;48.752;9.088;2023-04-16T08:15:10;28.50;;;17.23;;
8183;SDS011;4133;48.752;9.088;2023-04-16T08:17:36;32.37;;;17.27;;
8183;SDS011;4133;48.752;9.088;2023-04-16T08:20:02;26.87;;;17.60;;
8183;SDS011;4133;48.752;9.088;2023-04-16T08:22:28;30.67;;;17.73;;
8183;SDS011;4133;48.752;9.088;2023-04-16T08:24:54;30.63;;;17.83;;
8183;SDS011;4133;48.752;9.088;2023-04-16T08:27:20;29.80;;;18.07;;
8183;SDS011;4133;48.752;9.088;2023-04-16T08:29:46;28.10;;;17.03;;
8183;SDS011;4133;48.752;9.088;2023-04-16T08:32:12;27.67;;;17.93;;
8183;SDS011;4133;48.752;9.088;2023-04-16T08:34:38;27.97;;;16.97;;
8183;SDS011;4133;48.752;9.088;2023-04-16T08:37:04;28.83;;;16.93;;
8183;SDS011;4133;48.752;9.088;2023-04-16T08:39:30;29.67;;;17.57;;
8183;SDS011;4133;48.752;9.088;2023-04-16T08:41:57;28.37;;;16.73;;
8183;SDS011;4133;48.752;9.088;2023-04-16T08:44:24;27.73;;;16.70;;
8183;SDS011;4133;48.752;9.088;2023-04-16T08:46:52;28.10;;;16.50;;
8183;SDS011;4133;48.752;9.088;2023-04-16T08:49:22;25.73;;;15.77;;
8183;SDS011;4133;48.752;9.088;2023-04-16T08:51:49;27.50;;;16.73;;
8183;SDS011;4133;48.752;9.088;2023-04-16T08:54:20;28.87;;;17.27;;
8183;SDS011;4133;48.752;9.088;2023-04-16T08:56:50;29.77;;;16.73;;
8183;SDS011;4133;48.752;9.088;2023-04-16T08:59:17;27.53;;;15.43;;
8183;SDS011;4133;48.752;9.088;2023-04-16T09:01:43;25.57;;;16.10;;
8183;SDS011;4133;48.752;9.088;2023-04-16T09:04:10;25.87;;;15.40;;
8183;SDS011;4133;48.752;9.088;2023-04-16T09:06:38;24.07;;;15.70;;
8183;SDS011;4133;48.752;9.088;2023-04-16T09:09:05;27.77;;;15.33;;
8183;SDS011;4133;48.752;9.088;2023-04-16T09:11:33;22.37;;;14.70;;
8183;SDS011;4133;48.752;9.088;2023-04-16T09:13:59;24.17;;;15.27;;
8183;SDS011;4133;48.752;9.088;2023-04-16T09:16:25;19.77;;;13.80;;
8183;SDS011;4133;48.752;9.088;2023-04-16T09:18:54;25.00;;;14.33;;
8183;SDS011;4133;48.752;9.088;2023-04-16T09:21:20;19.47;;;13.37;;
8183;SDS011;4133;48.752;9.088;2023-04-16T09:23:47;26.10;;;14.03;;
8183;SDS011;4133;48.752;9.088;2023-04-16T09:26:14;27.37;;;15.50;;
8183;SDS011;4133;48.752;9.088;2023-04-16T09:28:41;22.90;;;14.73;;
8183;SDS011;4133;48.752;9.088;2023-04-16T09:31:09;23.13;;;14.13;;
8183;SDS011;4133;48.752;9.088;2023-04-16T09:33:35;24.23;;;15.03;;
8183;SDS011;4133;48.752;9.088;2023-04-16T09:36:01;25.27;;;14.87;;
8183;SDS011;4133;48.752;9.088;2023-04-16T09:38:44;25.50;;;14.57;;
8183;SDS011;4133;48.752;9.088;2023-04-16T09:41:11;25.07;;;14.53;;
8183;SDS011;4133;48.752;9.088;2023-04-16T09:43:40;23.03;;;14.67;;
8183;SDS011;4133;48.752;9.088;2023-04-16T09:46:06;23.47;;;14.43;;
8183;SDS011;4133;48.752;9.088;2023-04-16T09:48:36;26.23;;;16.63;;
8183;SDS011;4133;48.752;9.088;2023-04-16T09:51:03;21.37;;;13.87;;
8183;SDS011;4133;48.752;9.088;2023-04-16T09:53:30;24.47;;;14.87;;
8183;SDS011;4133;48.752;9.088;2023-04-16T09:55:56;25.23;;;15.00;;
8183;SDS011;4133;48.752;9.088;2023-04-16T09:58:23;23.70;;;14.30;;
8183;SDS011;4133;48.752;9.088;2023-04-16T10:01:02;23.33;;;14.73;;
8183;SDS011;4133;48.752;9.088;2023-04-16T10:03:33;23.27;;;14.53;;
8183;SDS011;4133;48.752;9.088;2023-04-16T10:08:58;26.00;;;15.43;;
8183;SDS011;4133;48.752;9.088;2023-04-16T10:11:24;26.37;;;15.70;;
8183;SDS011;4133;48.752;9.088;2023-04-16T10:13:51;30.40;;;16.20;;
8183;SDS011;4133;48.752;9.088;2023-04-16T10:16:17;27.07;;;15.63;;
8183;SDS011;4133;48.752;9.088;2023-04-16T10:18:43;25.67;;;15.00;;
8183;SDS011;4133;48.752;9.088;2023-04-16T10:21:10;25.67;;;15.93;;
8183;SDS011;4133;48.752;9.088;2023-04-16T10:23:39;28.03;;;16.70;;
8183;SDS011;4133;48.752;9.088;2023-04-16T10:26:06;30.00;;;15.37;;
8183;SDS011;4133;48.752;9.088;2023-04-16T10:28:39;25.97;;;15.70;;
8183;SDS011;4133;48.752;9.088;2023-04-16T10:31:06;31.70;;;17.30;;
8183;SDS011;4133;48.752;9.088;2023-04-16T10:33:36;29.67;;;16.80;;
8183;SDS011;4133;48.752;9.088;2023-04-16T10:36:08;28.37;;;17.10;;
8183;SDS011;4133;48.752;9.088;2023-04-16T10:38:37;24.70;;;16.37;;
8183;SDS011;4133;48.752;9.088;2023-04-16T10:41:04;26.53;;;16.43;;
8183;SDS011;4133;48.752;9.088;2023-04-16T10:43:32;24.37;;;14.93;;
8183;SDS011;4133;48.752;9.088;2023-04-16T10:48:43;29.73;;;18.27;;
8183;SDS011;4133;48.752;9.088;2023-04-16T10:51:21;25.90;;;15.00;;
8183;SDS011;4133;48.752;9.088;2023-04-16T10:53:48;23.63;;;14.03;;
8183;SDS011;4133;48.752;9.088;2023-04-16T10:56:16;21.80;;;14.07;;
8183;SDS011;4133;48.752;9.088;2023-04-16T10:58:47;20.00;;;13.00;;
8183;SDS011;4133;48.752;9.088;2023-04-16T11:01:13;21.47;;;13.13;;
8183;SDS011;4133;48.752;9.088;2023-04-16T11:03:41;20.93;;;13.00;;
8183;SDS011;4133;48.752;9.088;2023-04-16T11:06:11;18.17;;;12.00;;
8183;SDS011;4133;48.752;9.088;2023-04-16T11:08:38;18.00;;;12.30;;
8183;SDS011;4133;48.752;9.088;2023-04-16T11:11:08;16.20;;;11.20;;
8183;SDS011;4133;48.752;9.088;2023-04-16T11:13:35;15.60;;;10.80;;
8183;SDS011;4133;48.752;9.088;2023-04-16T11:16:01;14.67;;;10.43;;
8183;SDS011;4133;48.752;9.088;2023-04-16T11:18:27;14.83;;;10.03;;
8183;SDS011;4133;48.752;9.088;2023-04-16T11:20:53;16.97;;;11.10;;
8183;SDS011;4133;48.752;9.088;2023-04-16T11:23:20;15.87;;;10.67;;
8183;SDS011;4133;48.752;9.088;2023-04-16T11:25:46;14.27;;;10.13;;
8183;SDS011;4133;48.752;9.088;2023-04-16T11:28:16;15.33;;;10.17;;
8183;SDS011;4133;48.752;9.088;2023-04-16T11:30:42;14.67;;;9.73;;
8183;SDS011;4133;48.752;9.088;2023-04-16T11:33:08;14.80;;;11.13;;
8183;SDS011;4133;48.752;9.088;2023-04-16T11:35:38;12.47;;;8.50;;
8183;SDS011;4133;48.752;9.088;2023-04-16T11:38:05;10.57;;;7.33;;
8183;SDS011;4133;48.752;9.088;2023-04-16T11:40:31;14.00;;;8.87;;
8183;SDS011;4133;48.752;9.088;2023-04-16T11:43:11;15.83;;;13.03;;
8183;SDS011;4133;48.752;9.088;2023-04-16T11:45:37;7.33;;;6.33;;
8183;SDS011;4133;48.752;9.088;2023-04-16T11:48:03;9.00;;;6.33;;
8183;SDS011;4133;48.752;9.088;2023-04-16T11:50:29;8.40;;;6.00;;
8183;SDS011;4133;48.752;9.088;2023-04-16T11:52:56;6.00;;;5.10;;
8183;SDS011;4133;48.752;9.088;2023-04-16T11:55:27;8.27;;;5.70;;
8183;SDS011;4133;48.752;9.088;2023-04-16T11:57:53;7.53;;;5.50;;
8183;SDS011;4133;48.752;9.088;2023-04-16T12:00:19;7.93;;;5.60;;
8183;SDS011;4133;48.752;9.088;2023-04-16T12:02:49;14.73;;;12.17;;
8183;SDS011;4133;48.752;9.088;2023-04-16T12:07:55;8.23;;;5.60;;
8183;SDS011;4133;48.752;9.088;2023-04-16T12:10:21;7.27;;;5.43;;
8183;SDS011;4133;48.752;9.088;2023-04-16T12:12:48;6.23;;;4.77;;
8183;SDS011;4133;48.752;9.088;2023-04-16T12:15:14;9.27;;;4.53;;
8183;SDS011;4133;48.752;9.088;2023-04-16T12:17:40;6.90;;;5.03;;
8183;SDS011;4133;48.752;9.088;2023-04-16T12:20:10;5.57;;;4.77;;
8183;SDS011;4133;48.752;9.088;2023-04-16T12:22:37;4.97;;;3.80;;
8183;SDS011;4133;48.752;9.088;2023-04-16T12:25:04;5.43;;;3.63;;
8183;SDS011;4133;48.752;9.088;2023-04-16T12:30:33;5.63;;;4.73;;
8183;SDS011;4133;48.752;9.088;2023-04-16T12:33:15;6.00;;;4.87;;
8183;SDS011;4133;48.752;9.088;2023-04-16T12:35:41;6.13;;;4.80;;
8183;SDS011;4133;48.752;9.088;2023-04-16T12:38:08;4.57;;;4.10;;
8183;SDS011;4133;48.752;9.088;2023-04-16T12:40:34;4.03;;;3.50;;
8183;SDS011;4133;48.752;9.088;2023-04-16T12:43:01;4.33;;;3.93;;
8183;SDS011;4133;48.752;9.088;2023-04-16T12:45:27;7.10;;;3.90;;
8183;SDS011;4133;48.752;9.088;2023-04-16T12:47:53;4.33;;;3.50;;
8183;SDS011;4133;48.752;9.088;2023-04-16T12:50:19;4.73;;;3.80;;
8183;SDS011;4133;48.752;9.088;2023-04-16T12:52:45;5.07;;;3.87;;
8183;SDS011;4133;48.752;9.088;2023-04-16T12:55:12;5.30;;;4.17;;
8183;SDS011;4133;48.752;9.088;2023-04-16T12:57:38;4.57;;;3.80;;
8183;SDS011;4133;48.752;9.088;2023-04-16T13:00:04;5.43;;;4.17;;
8183;SDS011;4133;48.752;9.088;2023-04-16T13:02:30;5.17;;;4.27;;
8183;SDS011;4133;48.752;9.088;2023-04-16T13:04:57;5.30;;;4.57;;
8183;SDS011;4133;48.752;9.088;2023-04-16T13:07:23;5.53;;;4.30;;
8183;SDS011;4133;48.752;9.088;2023-04-16T13:09:50;5.33;;;4.23;;
8183;SDS011;4133;48.752;9.088;2023-04-16T13:12:17;5.60;;;4.40;;
8183;SDS011;4133;48.752;9.088;2023-04-16T13:14:43;5.80;;;4.53;;
8183;SDS011;4133;48.752;9.088;2023-04-16T13:17:09;5.00;;;4.13;;
8183;SDS011;4133;48.752;9.088;2023-04-16T13:19:35;4.80;;;4.17;;
8183;SDS011;4133;48.752;9.088;2023-04-16T13:22:01;5.47;;;4.20;;
8183;SDS011;4133;48.752;9.088;2023-04-16T13:24:27;5.10;;;4.43;;
8183;SDS011;4133;48.752;9.088;2023-04-16T13:26:53;5.83;;;4.27;;
8183;SDS011;4133;48.752;9.088;2023-04-16T13:31:49;6.47;;;4.57;;
8183;SDS011;4133;48.752;9.088;2023-04-16T13:34:15;5.17;;;4.50;;
8183;SDS011;4133;48.752;9.088;2023-04-16T13:36:41;6.33;;;4.50;;
8183;SDS011;4133;48.752;9.088;2023-04-16T13:39:07;8.80;;;5.23;;
8183;SDS011;4133;48.752;9.088;2023-04-16T13:41:38;6.07;;;4.80;;
8183;SDS011;4133;48.752;9.088;2023-04-16T13:44:04;6.83;;;5.10;;
8183;SDS011;4133;48.752;9.088;2023-04-16T13:46:30;6.30;;;4.63;;
8183;SDS011;4133;48.752;9.088;2023-04-16T13:48:56;6.10;;;4.67;;
8183;SDS011;4133;48.752;9.088;2023-04-16T13:51:23;6.97;;;4.93;;
8183;SDS011;4133;48.752;9.088;2023-04-16T13:53:49;6.50;;;5.00;;
8183;SDS011;4133;48.752;9.088;2023-04-16T13:56:15;18.00;;;14.47;;
8183;SDS011;4133;48.752;9.088;2023-04-16T13:58:41;8.00;;;5.47;;
8183;SDS011;4133;48.752;9.088;2023-04-16T14:01:08;7.07;;;5.63;;
8183;SDS011;4133;48.752;9.088;2023-04-16T14:03:34;7.43;;;5.70;;
8183;SDS011;4133;48.752;9.088;2023-04-16T14:06:02;6.97;;;5.80;;
8183;SDS011;4133;48.752;9.088;2023-04-16T14:08:28;8.07;;;5.67;;
8183;SDS011;4133;48.752;9.088;2023-04-16T14:10:57;8.13;;;6.30;;
8183;SDS011;4133;48.752;9.088;2023-04-16T14:13:23;8.10;;;6.40;;
8183;SDS011;4133;48.752;9.088;2023-04-16T14:15:52;9.57;;;6.83;;
8183;SDS011;4133;48.752;9.088;2023-04-16T14:18:18;8.53;;;6.50;;
8183;SDS011;4133;48.752;9.088;2023-04-16T14:20:44;9.27;;;6.93;;
8183;SDS011;4133;48.752;9.088;2023-04-16T14:23:10;9.23;;;7.27;;
8183;SDS011;4133;48.752;9.088;2023-04-16T14:25:36;9.07;;;6.83;;
8183;SDS011;4133;48.752;9.088;2023-04-16T14:28:03;10.17;;;7.07;;
8183;SDS011;4133;48.752;9.088;2023-04-16T14:30:29;9.43;;;7.33;;
8183;SDS011;4133;48.752;9.088;2023-04-16T14:32:55;10.07;;;7.87;;
8183;SDS011;4133;48.752;9.088;2023-04-16T14:35:21;12.43;;;7.90;;
8183;SDS011;4133;48.752;9.088;2023-04-16T14:40:51;10.77;;;8.33;;
8183;SDS011;4133;48.752;9.088;2023-04-16T14:43:17;13.13;;;8.87;;
8183;SDS011;4133;48.752;9.088;2023-04-16T14:45:43;13.70;;;9.10;;
8183;SDS011;4133;48.752;9.088;2023-04-16T14:48:09;11.33;;;8.67;;
8183;SDS011;4133;48.752;9.088;2023-04-16T14:50:35;12.93;;;9.47;;
8183;SDS011;4133;48.752;9.088;2023-04-16T14:53:03;13.17;;;9.80;;
8183;SDS011;4133;48.752;9.088;2023-04-16T14:55:29;14.07;;;10.40;;
8183;SDS011;4133;48.752;9.088;2023-04-16T14:57:56;17.63;;;11.33;;
8183;SDS011;4133;48.752;9.088;2023-04-16T15:00:23;16.10;;;10.53;;
8183;SDS011;4133;48.752;9.088;2023-04-16T15:02:49;17.33;;;10.70;;
8183;SDS011;4133;48.752;9.088;2023-04-16T15:05:15;14.73;;;10.70;;
8183;SDS011;4133;48.752;9.088;2023-04-16T15:07:41;18.10;;;11.37;;
8183;SDS011;4133;48.752;9.088;2023-04-16T15:10:08;17.70;;;11.73;;
8183;SDS011;4133;48.752;9.088;2023-04-16T15:12:34;16.90;;;11.60;;
8183;SDS011;4133;48.752;9.088;2023-04-16T15:15:00;20.00;;;12.33;;
8183;SDS011;4133;48.752;9.088;2023-04-16T15:17:26;19.17;;;12.33;;
8183;SDS011;4133;48.752;9.088;2023-04-16T15:19:52;19.10;;;13.27;;
8183;SDS011;4133;48.752;9.088;2023-04-16T15:22:18;22.37;;;13.97;;